HAZ2636 ZPPP-ZSHC
Flight info
| Callsign | HAZ2636 |
|---|---|
| Flight time | 2h 19m |
| Altitude | 37100 |
| Route | NOD9Z NODIB W137 LPS A581 IDGAG W80 XSH DCT JDZ DCT TXN G204 OREXA OREXA81 |
| Aircraft | A339/H-SADE1E2E3GHIJ3J5M1P2RWXY/LB2D1 |
Departure
| Time | 2026-05-04 12:44 |
|---|---|
| Airport | Kunming Changshui International Airport (ZPPP) |
Arrival
| Time | 2026-05-04 15:04 |
|---|---|
| Airport | Hangzhou Xiaoshan International Airport (ZSHC) |
| Time | Latitude | Longitude | Altitude | Speed | Heading |
|---|---|---|---|---|---|
| 2026-05-04 11:20 | 25.10887 | 102.93977 | 6916 ft | 0 kts | 38° |
| 2026-05-04 12:15 | 25.10880 | 102.93971 | 6917 ft | 2 kts | 43° |
| 2026-05-04 12:15 | 25.10869 | 102.93959 | 6917 ft | 2 kts | 44° |
| 2026-05-04 12:15 | 25.10858 | 102.93947 | 6917 ft | 2 kts | 43° |
| 2026-05-04 12:16 | 25.10847 | 102.93936 | 6917 ft | 2 kts | 43° |
| 2026-05-04 12:16 | 25.10837 | 102.93926 | 6917 ft | 2 kts | 43° |
| 2026-05-04 12:16 | 25.10831 | 102.93919 | 6917 ft | 2 kts | 41° |
| 2026-05-04 12:16 | 25.10818 | 102.93914 | 6917 ft | 2 kts | 348° |
| 2026-05-04 12:17 | 25.10806 | 102.93920 | 6917 ft | 0 kts | 309° |
| 2026-05-04 12:17 | 25.10803 | 102.93926 | 6917 ft | 0 kts | 307° |
| 2026-05-04 12:20 | 25.10804 | 102.93924 | 6917 ft | 0 kts | 307° |
| 2026-05-04 12:20 | 25.10822 | 102.93898 | 6917 ft | 7 kts | 307° |
| 2026-05-04 12:20 | 25.10869 | 102.93832 | 6917 ft | 12 kts | 310° |
| 2026-05-04 12:21 | 25.10918 | 102.93758 | 6917 ft | 11 kts | 289° |
| 2026-05-04 12:21 | 25.10899 | 102.93691 | 6917 ft | 7 kts | 226° |
| 2026-05-04 12:21 | 25.10857 | 102.93652 | 6917 ft | 7 kts | 218° |
| 2026-05-04 12:21 | 25.10815 | 102.93612 | 6917 ft | 7 kts | 234° |
| 2026-05-04 12:22 | 25.10811 | 102.93559 | 6917 ft | 9 kts | 290° |
| 2026-05-04 12:22 | 25.10860 | 102.93483 | 6917 ft | 15 kts | 308° |
| 2026-05-04 12:22 | 25.10943 | 102.93368 | 6917 ft | 22 kts | 309° |
| 2026-05-04 12:22 | 25.11035 | 102.93237 | 6917 ft | 20 kts | 307° |
| 2026-05-04 12:23 | 25.11123 | 102.93120 | 6917 ft | 19 kts | 308° |
| 2026-05-04 12:23 | 25.11198 | 102.93014 | 6917 ft | 16 kts | 308° |
| 2026-05-04 12:23 | 25.11262 | 102.92924 | 6917 ft | 12 kts | 308° |
| 2026-05-04 12:23 | 25.11328 | 102.92901 | 6917 ft | 10 kts | 26° |
| 2026-05-04 12:24 | 25.11396 | 102.92957 | 6917 ft | 16 kts | 38° |
| 2026-05-04 12:24 | 25.11509 | 102.93057 | 6917 ft | 22 kts | 39° |
| 2026-05-04 12:24 | 25.11628 | 102.93159 | 6917 ft | 20 kts | 39° |
| 2026-05-04 12:24 | 25.11738 | 102.93256 | 6917 ft | 19 kts | 38° |
| 2026-05-04 12:25 | 25.11840 | 102.93345 | 6917 ft | 18 kts | 38° |
| 2026-05-04 12:25 | 25.11939 | 102.93430 | 6917 ft | 19 kts | 38° |
| 2026-05-04 12:25 | 25.12050 | 102.93527 | 6917 ft | 20 kts | 38° |
| 2026-05-04 12:25 | 25.12163 | 102.93625 | 6917 ft | 20 kts | 38° |
| 2026-05-04 12:26 | 25.12270 | 102.93718 | 6917 ft | 19 kts | 38° |
| 2026-05-04 12:26 | 25.12376 | 102.93810 | 6917 ft | 20 kts | 39° |
| 2026-05-04 12:26 | 25.12494 | 102.93914 | 6917 ft | 22 kts | 38° |
| 2026-05-04 12:26 | 25.12624 | 102.94027 | 6917 ft | 23 kts | 38° |
| 2026-05-04 12:27 | 25.12738 | 102.94125 | 6917 ft | 12 kts | 38° |
| 2026-05-04 12:27 | 25.12745 | 102.94132 | 6917 ft | 0 kts | 38° |
| 2026-05-04 12:28 | 25.12758 | 102.94144 | 6917 ft | 3 kts | 38° |
| 2026-05-04 12:28 | 25.12777 | 102.94160 | 6917 ft | 3 kts | 38° |
| 2026-05-04 12:29 | 25.12796 | 102.94177 | 6917 ft | 4 kts | 38° |
| 2026-05-04 12:29 | 25.12828 | 102.94204 | 6917 ft | 4 kts | 38° |
| 2026-05-04 12:29 | 25.12830 | 102.94206 | 6917 ft | 0 kts | 38° |
| 2026-05-04 12:31 | 25.12831 | 102.94206 | 6917 ft | 0 kts | 38° |
| 2026-05-04 12:31 | 25.12856 | 102.94228 | 6917 ft | 5 kts | 38° |
| 2026-05-04 12:32 | 25.12877 | 102.94247 | 6917 ft | 0 kts | 39° |
| 2026-05-04 12:32 | 25.12889 | 102.94258 | 6917 ft | 1 kts | 38° |
| 2026-05-04 12:32 | 25.12892 | 102.94260 | 6917 ft | 0 kts | 38° |
| 2026-05-04 12:39 | 25.12933 | 102.94280 | 6917 ft | 7 kts | 359° |
| 2026-05-04 12:39 | 25.12966 | 102.94254 | 6917 ft | 0 kts | 311° |
| 2026-05-04 12:41 | 25.12983 | 102.94233 | 6917 ft | 6 kts | 311° |
| 2026-05-04 12:41 | 25.13024 | 102.94178 | 6917 ft | 10 kts | 303° |
| 2026-05-04 12:42 | 25.13015 | 102.94134 | 6917 ft | 6 kts | 231° |
| 2026-05-04 12:42 | 25.13009 | 102.94127 | 6917 ft | 0 kts | 216° |
| 2026-05-04 12:43 | 25.12991 | 102.94110 | 6917 ft | 10 kts | 220° |
| 2026-05-04 12:43 | 25.12836 | 102.93973 | 6917 ft | 56 kts | 218° |
| 2026-05-04 12:43 | 25.12366 | 102.93564 | 6917 ft | 112 kts | 218° |
| 2026-05-04 12:44 | 25.11626 | 102.92919 | 6917 ft | 160 kts | 218° |
| 2026-05-04 12:44 | 25.10648 | 102.92066 | 7037 ft | 189 kts | 219° |
| 2026-05-04 12:44 | 25.09610 | 102.91138 | 7497 ft | 196 kts | 222° |
| 2026-05-04 12:44 | 25.08673 | 102.90055 | 8109 ft | 197 kts | 236° |
| 2026-05-04 12:45 | 25.07815 | 102.88916 | 8754 ft | 194 kts | 212° |
| 2026-05-04 12:45 | 25.06490 | 102.88583 | 9016 ft | 210 kts | 169° |
| 2026-05-04 12:45 | 25.05115 | 102.89326 | 9272 ft | 227 kts | 147° |
| 2026-05-04 12:45 | 25.03788 | 102.90359 | 9530 ft | 242 kts | 149° |
| 2026-05-04 12:46 | 25.02320 | 102.91376 | 9804 ft | 256 kts | 153° |
| 2026-05-04 12:46 | 25.00700 | 102.92352 | 10084 ft | 271 kts | 156° |
| 2026-05-04 12:46 | 24.98981 | 102.93292 | 10362 ft | 286 kts | 157° |
| 2026-05-04 12:46 | 24.97114 | 102.94262 | 10645 ft | 302 kts | 158° |
| 2026-05-04 12:47 | 24.95161 | 102.95252 | 10922 ft | 318 kts | 158° |
| 2026-05-04 12:47 | 24.93083 | 102.96297 | 11198 ft | 334 kts | 158° |
| 2026-05-04 12:47 | 24.90908 | 102.97388 | 11468 ft | 350 kts | 158° |
| 2026-05-04 12:47 | 24.88706 | 102.98707 | 11707 ft | 369 kts | 143° |
| 2026-05-04 12:48 | 24.86994 | 103.00875 | 12076 ft | 385 kts | 121° |
| 2026-05-04 12:48 | 24.86083 | 103.03657 | 12627 ft | 391 kts | 98° |
| 2026-05-04 12:48 | 24.86141 | 103.06670 | 13175 ft | 394 kts | 76° |
| 2026-05-04 12:48 | 24.87172 | 103.09403 | 13700 ft | 393 kts | 53° |
| 2026-05-04 12:49 | 24.89043 | 103.11556 | 14230 ft | 388 kts | 32° |
| 2026-05-04 12:49 | 24.91324 | 103.13143 | 14783 ft | 390 kts | 29° |
| 2026-05-04 12:49 | 24.93633 | 103.14783 | 15277 ft | 394 kts | 29° |
| 2026-05-04 12:49 | 24.95931 | 103.16444 | 15815 ft | 397 kts | 30° |
| 2026-05-04 12:50 | 24.98214 | 103.18130 | 16319 ft | 401 kts | 30° |
| 2026-05-04 12:50 | 25.00567 | 103.19898 | 16920 ft | 404 kts | 30° |
| 2026-05-04 12:50 | 25.02894 | 103.21664 | 17436 ft | 407 kts | 30° |
| 2026-05-04 12:50 | 25.05206 | 103.23430 | 17963 ft | 410 kts | 30° |
| 2026-05-04 12:51 | 25.07556 | 103.25230 | 18443 ft | 413 kts | 30° |
| 2026-05-04 12:51 | 25.09926 | 103.27049 | 18919 ft | 417 kts | 30° |
| 2026-05-04 12:51 | 25.12305 | 103.28880 | 19392 ft | 420 kts | 30° |
| 2026-05-04 12:51 | 25.14725 | 103.30743 | 19892 ft | 423 kts | 30° |
| 2026-05-04 12:52 | 25.17090 | 103.32564 | 20373 ft | 425 kts | 30° |
| 2026-05-04 12:52 | 25.19516 | 103.34435 | 20836 ft | 428 kts | 31° |
| 2026-05-04 12:52 | 25.21959 | 103.36319 | 21296 ft | 431 kts | 30° |
| 2026-05-04 12:52 | 25.24439 | 103.38235 | 21726 ft | 434 kts | 30° |
| 2026-05-04 12:53 | 25.26926 | 103.40157 | 22166 ft | 436 kts | 30° |
| 2026-05-04 12:53 | 25.29407 | 103.42072 | 22610 ft | 439 kts | 30° |
| 2026-05-04 12:53 | 25.31907 | 103.44006 | 23019 ft | 442 kts | 30° |
| 2026-05-04 12:53 | 25.34426 | 103.45956 | 23410 ft | 445 kts | 30° |
| 2026-05-04 12:54 | 25.36971 | 103.47927 | 23803 ft | 447 kts | 30° |
| 2026-05-04 12:54 | 25.39527 | 103.49908 | 24218 ft | 450 kts | 30° |
| 2026-05-04 12:54 | 25.42100 | 103.51903 | 24611 ft | 452 kts | 30° |
| 2026-05-04 12:54 | 25.44696 | 103.53915 | 25000 ft | 455 kts | 30° |
| 2026-05-04 12:55 | 25.47300 | 103.55934 | 25379 ft | 458 kts | 30° |
| 2026-05-04 12:55 | 25.49919 | 103.57985 | 25701 ft | 462 kts | 31° |
| 2026-05-04 12:55 | 25.52381 | 103.60319 | 26047 ft | 471 kts | 39° |
| 2026-05-04 12:55 | 25.54606 | 103.63048 | 26418 ft | 479 kts | 47° |
| 2026-05-04 12:56 | 25.56519 | 103.66052 | 26796 ft | 485 kts | 52° |
| 2026-05-04 12:56 | 25.58350 | 103.69198 | 27102 ft | 488 kts | 53° |
| 2026-05-04 12:56 | 25.60174 | 103.72396 | 27475 ft | 489 kts | 53° |
| 2026-05-04 12:56 | 25.61997 | 103.75591 | 27880 ft | 489 kts | 53° |
| 2026-05-04 12:57 | 25.63809 | 103.78752 | 28234 ft | 491 kts | 52° |
| 2026-05-04 12:57 | 25.65647 | 103.81939 | 28569 ft | 493 kts | 52° |
| 2026-05-04 12:57 | 25.67518 | 103.85175 | 28874 ft | 495 kts | 52° |
| 2026-05-04 12:57 | 25.69373 | 103.88376 | 29117 ft | 498 kts | 52° |
| 2026-05-04 12:58 | 25.71256 | 103.91627 | 29396 ft | 500 kts | 52° |
| 2026-05-04 12:58 | 25.73133 | 103.94871 | 29668 ft | 503 kts | 52° |
| 2026-05-04 12:58 | 25.75011 | 103.98122 | 29916 ft | 506 kts | 52° |
| 2026-05-04 12:58 | 25.76912 | 104.01415 | 30190 ft | 508 kts | 52° |
| 2026-05-04 12:59 | 25.78811 | 104.04703 | 30406 ft | 511 kts | 52° |
| 2026-05-04 12:59 | 25.80750 | 104.08051 | 30692 ft | 512 kts | 52° |
| 2026-05-04 12:59 | 25.82674 | 104.11327 | 31040 ft | 511 kts | 51° |
| 2026-05-04 12:59 | 25.84628 | 104.14642 | 31402 ft | 510 kts | 51° |
| 2026-05-04 13:00 | 25.86565 | 104.17932 | 31709 ft | 510 kts | 51° |
| 2026-05-04 13:00 | 25.88497 | 104.21217 | 32017 ft | 511 kts | 51° |
| 2026-05-04 13:00 | 25.90421 | 104.24494 | 32281 ft | 511 kts | 51° |
| 2026-05-04 13:00 | 25.92361 | 104.27805 | 32586 ft | 511 kts | 51° |
| 2026-05-04 13:01 | 25.94299 | 104.31114 | 32941 ft | 511 kts | 51° |
| 2026-05-04 13:01 | 25.96221 | 104.34402 | 33325 ft | 510 kts | 51° |
| 2026-05-04 13:01 | 25.98163 | 104.37723 | 33742 ft | 508 kts | 50° |
| 2026-05-04 13:01 | 26.00168 | 104.40895 | 34160 ft | 503 kts | 46° |
| 2026-05-04 13:02 | 26.02327 | 104.43922 | 34577 ft | 498 kts | 43° |
| 2026-05-04 13:02 | 26.04628 | 104.46783 | 34983 ft | 492 kts | 39° |
| 2026-05-04 13:02 | 26.07070 | 104.49479 | 35377 ft | 487 kts | 36° |
| 2026-05-04 13:02 | 26.09594 | 104.51958 | 35703 ft | 484 kts | 33° |
| 2026-05-04 13:03 | 26.12187 | 104.54368 | 35922 ft | 485 kts | 32° |
| 2026-05-04 13:03 | 26.14789 | 104.56759 | 36120 ft | 486 kts | 32° |
| 2026-05-04 13:03 | 26.17400 | 104.59161 | 36341 ft | 488 kts | 32° |
| 2026-05-04 13:03 | 26.20023 | 104.61580 | 36582 ft | 489 kts | 32° |
| 2026-05-04 13:04 | 26.22614 | 104.63982 | 36816 ft | 489 kts | 32° |
| 2026-05-04 13:04 | 26.25235 | 104.66417 | 37059 ft | 490 kts | 33° |
| 2026-05-04 13:04 | 26.27851 | 104.68851 | 37275 ft | 490 kts | 33° |
| 2026-05-04 13:05 | 26.33096 | 104.73739 | 37334 ft | 493 kts | 33° |
| 2026-05-04 13:05 | 26.38360 | 104.78657 | 37335 ft | 494 kts | 32° |
| 2026-05-04 13:06 | 26.43654 | 104.83601 | 37334 ft | 494 kts | 32° |
| 2026-05-04 13:06 | 26.48905 | 104.88515 | 37342 ft | 495 kts | 32° |
| 2026-05-04 13:07 | 26.54202 | 104.93478 | 37345 ft | 500 kts | 32° |
| 2026-05-04 13:07 | 26.59445 | 104.98772 | 37338 ft | 515 kts | 39° |
| 2026-05-04 13:08 | 26.64111 | 105.04981 | 37341 ft | 527 kts | 48° |
| 2026-05-04 13:08 | 26.67955 | 105.11973 | 37334 ft | 535 kts | 57° |
| 2026-05-04 13:09 | 26.71086 | 105.19547 | 37340 ft | 539 kts | 60° |
| 2026-05-04 13:09 | 26.74103 | 105.27204 | 37329 ft | 539 kts | 60° |
| 2026-05-04 13:10 | 26.77152 | 105.34888 | 37350 ft | 539 kts | 60° |
| 2026-05-04 13:10 | 26.80199 | 105.42531 | 37304 ft | 540 kts | 60° |
| 2026-05-04 13:11 | 26.83254 | 105.50182 | 37311 ft | 539 kts | 60° |
| 2026-05-04 13:11 | 26.86319 | 105.57871 | 37319 ft | 539 kts | 60° |
| 2026-05-04 13:12 | 26.89359 | 105.65513 | 37291 ft | 540 kts | 60° |
| 2026-05-04 13:12 | 26.92371 | 105.73099 | 37303 ft | 541 kts | 60° |
| 2026-05-04 13:13 | 26.95422 | 105.80812 | 37270 ft | 540 kts | 60° |
| 2026-05-04 13:13 | 26.98454 | 105.88491 | 37275 ft | 542 kts | 60° |
| 2026-05-04 13:14 | 27.01507 | 105.96224 | 37297 ft | 541 kts | 60° |
| 2026-05-04 13:14 | 27.04588 | 106.03896 | 37288 ft | 539 kts | 57° |
| 2026-05-04 13:15 | 27.07983 | 106.11384 | 37272 ft | 539 kts | 56° |
| 2026-05-04 13:15 | 27.11323 | 106.18636 | 37273 ft | 539 kts | 56° |
| 2026-05-04 13:16 | 27.14756 | 106.26156 | 37281 ft | 539 kts | 56° |
| 2026-05-04 13:16 | 27.18147 | 106.33616 | 37285 ft | 539 kts | 56° |
| 2026-05-04 13:17 | 27.21551 | 106.41103 | 37279 ft | 540 kts | 56° |
| 2026-05-04 13:17 | 27.24960 | 106.48597 | 37267 ft | 541 kts | 56° |
| 2026-05-04 13:18 | 27.28388 | 106.56153 | 37259 ft | 541 kts | 56° |
| 2026-05-04 13:18 | 27.31773 | 106.63642 | 37253 ft | 544 kts | 56° |
| 2026-05-04 13:19 | 27.35169 | 106.71175 | 37236 ft | 538 kts | 57° |
| 2026-05-04 13:19 | 27.38527 | 106.78629 | 37243 ft | 534 kts | 57° |
| 2026-05-04 13:20 | 27.41875 | 106.86102 | 37241 ft | 535 kts | 57° |
| 2026-05-04 13:20 | 27.45219 | 106.93590 | 37239 ft | 536 kts | 57° |
| 2026-05-04 13:21 | 27.48545 | 107.01032 | 37239 ft | 535 kts | 57° |
| 2026-05-04 13:21 | 27.51931 | 107.08504 | 37239 ft | 535 kts | 56° |
| 2026-05-04 13:22 | 27.55297 | 107.15950 | 37241 ft | 535 kts | 56° |
| 2026-05-04 13:22 | 27.58671 | 107.23432 | 37232 ft | 536 kts | 56° |
| 2026-05-04 13:23 | 27.62041 | 107.30897 | 37228 ft | 537 kts | 56° |
| 2026-05-04 13:23 | 27.65402 | 107.38365 | 37221 ft | 537 kts | 56° |
| 2026-05-04 13:24 | 27.68793 | 107.45914 | 37220 ft | 538 kts | 56° |
| 2026-05-04 13:24 | 27.72155 | 107.53421 | 37217 ft | 538 kts | 56° |
| 2026-05-04 13:25 | 27.77204 | 107.64719 | 37223 ft | 538 kts | 56° |
| 2026-05-04 13:25 | 27.80546 | 107.72214 | 37227 ft | 537 kts | 57° |
| 2026-05-04 13:26 | 27.83923 | 107.79765 | 37226 ft | 538 kts | 56° |
| 2026-05-04 13:26 | 27.87345 | 107.87238 | 37216 ft | 538 kts | 56° |
| 2026-05-04 13:27 | 27.90786 | 107.94744 | 37203 ft | 539 kts | 56° |
| 2026-05-04 13:27 | 27.94218 | 108.02269 | 37204 ft | 539 kts | 56° |
| 2026-05-04 13:28 | 27.97632 | 108.09781 | 37191 ft | 537 kts | 56° |
| 2026-05-04 13:28 | 28.01042 | 108.17290 | 37201 ft | 537 kts | 56° |
| 2026-05-04 13:29 | 28.04450 | 108.24806 | 37187 ft | 539 kts | 56° |
| 2026-05-04 13:29 | 28.07854 | 108.32336 | 37171 ft | 538 kts | 56° |
| 2026-05-04 13:30 | 28.11278 | 108.39925 | 37186 ft | 540 kts | 56° |
| 2026-05-04 13:30 | 28.14673 | 108.47458 | 37184 ft | 540 kts | 56° |
| 2026-05-04 13:31 | 28.18077 | 108.55027 | 37177 ft | 540 kts | 56° |
| 2026-05-04 13:31 | 28.21471 | 108.62590 | 37198 ft | 540 kts | 56° |
| 2026-05-04 13:32 | 28.24863 | 108.70165 | 37193 ft | 541 kts | 57° |
| 2026-05-04 13:32 | 28.28272 | 108.77782 | 37194 ft | 542 kts | 57° |
| 2026-05-04 13:33 | 28.31671 | 108.85403 | 37198 ft | 541 kts | 57° |
| 2026-05-04 13:33 | 28.35058 | 108.93011 | 37199 ft | 542 kts | 57° |
| 2026-05-04 13:34 | 28.38464 | 109.00665 | 37173 ft | 543 kts | 56° |
| 2026-05-04 13:34 | 28.41861 | 109.08333 | 37179 ft | 542 kts | 57° |
| 2026-05-04 13:35 | 28.46918 | 109.19763 | 37145 ft | 542 kts | 56° |
| 2026-05-04 13:36 | 28.50289 | 109.27411 | 37169 ft | 542 kts | 56° |
| 2026-05-04 13:36 | 28.53646 | 109.35049 | 37164 ft | 543 kts | 56° |
| 2026-05-04 13:37 | 28.57029 | 109.42775 | 37150 ft | 545 kts | 57° |
| 2026-05-04 13:37 | 28.60016 | 109.50711 | 37156 ft | 549 kts | 62° |
| 2026-05-04 13:38 | 28.62749 | 109.58780 | 37153 ft | 551 kts | 63° |
| 2026-05-04 13:38 | 28.65513 | 109.66933 | 37135 ft | 549 kts | 62° |
| 2026-05-04 13:39 | 28.68370 | 109.74933 | 37135 ft | 549 kts | 62° |
| 2026-05-04 13:39 | 28.71279 | 109.82967 | 37139 ft | 550 kts | 62° |
| 2026-05-04 13:40 | 28.74163 | 109.91003 | 37142 ft | 550 kts | 62° |
| 2026-05-04 13:40 | 28.77041 | 109.99065 | 37146 ft | 550 kts | 61° |
| 2026-05-04 13:41 | 28.79932 | 110.07177 | 37168 ft | 551 kts | 62° |
| 2026-05-04 13:41 | 28.82802 | 110.15261 | 37148 ft | 551 kts | 62° |
| 2026-05-04 13:42 | 28.87107 | 110.27409 | 37138 ft | 552 kts | 62° |
| 2026-05-04 13:42 | 28.89952 | 110.35463 | 37136 ft | 553 kts | 62° |
| 2026-05-04 13:43 | 28.92832 | 110.43632 | 37149 ft | 553 kts | 62° |
| 2026-05-04 13:43 | 28.95682 | 110.51739 | 37145 ft | 555 kts | 62° |
| 2026-05-04 13:44 | 28.98548 | 110.59910 | 37151 ft | 556 kts | 62° |
| 2026-05-04 13:44 | 29.01420 | 110.68124 | 37134 ft | 555 kts | 62° |
| 2026-05-04 13:45 | 29.04281 | 110.76266 | 37134 ft | 556 kts | 62° |
| 2026-05-04 13:45 | 29.07187 | 110.84456 | 37133 ft | 556 kts | 62° |
| 2026-05-04 13:46 | 29.10090 | 110.92640 | 37134 ft | 556 kts | 62° |
| 2026-05-04 13:46 | 29.12991 | 111.00852 | 37135 ft | 557 kts | 62° |
| 2026-05-04 13:47 | 29.15877 | 111.09046 | 37127 ft | 557 kts | 62° |
| 2026-05-04 13:47 | 29.18750 | 111.17230 | 37123 ft | 556 kts | 62° |
| 2026-05-04 13:48 | 29.21617 | 111.25407 | 37111 ft | 557 kts | 62° |
| 2026-05-04 13:48 | 29.24502 | 111.33656 | 37107 ft | 557 kts | 62° |
| 2026-05-04 13:49 | 29.27367 | 111.41871 | 37102 ft | 557 kts | 62° |
| 2026-05-04 13:49 | 29.30234 | 111.50117 | 37106 ft | 558 kts | 62° |
| 2026-05-04 13:50 | 29.33091 | 111.58341 | 37096 ft | 558 kts | 61° |
| 2026-05-04 13:50 | 29.36379 | 111.66348 | 37100 ft | 551 kts | 54° |
| 2026-05-04 13:51 | 29.40351 | 111.73747 | 37092 ft | 546 kts | 50° |
| 2026-05-04 13:51 | 29.44546 | 111.80983 | 37093 ft | 545 kts | 49° |
| 2026-05-04 13:52 | 29.50802 | 111.91861 | 37094 ft | 546 kts | 50° |
| 2026-05-04 13:53 | 29.54939 | 111.99115 | 37079 ft | 547 kts | 50° |
| 2026-05-04 13:53 | 29.59108 | 112.06447 | 37093 ft | 547 kts | 50° |
| 2026-05-04 13:54 | 29.65340 | 112.17439 | 37079 ft | 547 kts | 50° |
| 2026-05-04 13:55 | 29.71541 | 112.28399 | 37073 ft | 547 kts | 50° |
| 2026-05-04 13:55 | 29.77744 | 112.39419 | 37104 ft | 546 kts | 50° |
| 2026-05-04 13:56 | 29.81857 | 112.46764 | 37079 ft | 546 kts | 50° |
| 2026-05-04 13:57 | 29.87991 | 112.57744 | 37070 ft | 546 kts | 50° |
| 2026-05-04 13:58 | 29.96171 | 112.72435 | 37079 ft | 548 kts | 51° |
| 2026-05-04 13:58 | 30.02342 | 112.83562 | 37088 ft | 547 kts | 51° |
| 2026-05-04 13:59 | 30.06420 | 112.90929 | 37085 ft | 545 kts | 51° |
| 2026-05-04 14:00 | 30.12532 | 113.01993 | 37081 ft | 547 kts | 51° |
| 2026-05-04 14:00 | 30.18650 | 113.13099 | 37090 ft | 546 kts | 51° |
| 2026-05-04 14:01 | 30.22723 | 113.20504 | 37095 ft | 545 kts | 51° |
| 2026-05-04 14:02 | 30.28896 | 113.31478 | 37096 ft | 544 kts | 51° |
| 2026-05-04 14:02 | 30.33018 | 113.38818 | 37100 ft | 544 kts | 51° |
| 2026-05-04 14:03 | 30.37118 | 113.46152 | 37100 ft | 545 kts | 51° |
| 2026-05-04 14:03 | 30.41230 | 113.53527 | 37120 ft | 542 kts | 51° |
| 2026-05-04 14:04 | 30.47341 | 113.64520 | 37110 ft | 544 kts | 51° |
| 2026-05-04 14:04 | 30.51440 | 113.71897 | 37127 ft | 546 kts | 52° |
| 2026-05-04 14:05 | 30.54899 | 113.79810 | 37133 ft | 556 kts | 67° |
| 2026-05-04 14:05 | 30.56014 | 113.84125 | 37128 ft | 559 kts | 75° |
| 2026-05-04 14:06 | 30.56842 | 113.93031 | 37098 ft | 563 kts | 91° |
| 2026-05-04 14:06 | 30.56094 | 114.02093 | 37120 ft | 561 kts | 98° |
| 2026-05-04 14:07 | 30.55096 | 114.11055 | 37137 ft | 562 kts | 97° |
| 2026-05-04 14:07 | 30.54229 | 114.20011 | 37100 ft | 563 kts | 96° |
| 2026-05-04 14:08 | 30.53378 | 114.28968 | 37128 ft | 561 kts | 97° |
| 2026-05-04 14:08 | 30.52503 | 114.37950 | 37118 ft | 564 kts | 97° |
| 2026-05-04 14:09 | 30.51148 | 114.51666 | 37107 ft | 574 kts | 97° |
| 2026-05-04 14:10 | 30.49772 | 114.65446 | 37130 ft | 574 kts | 97° |
| 2026-05-04 14:10 | 30.48851 | 114.74599 | 37107 ft | 575 kts | 97° |
| 2026-05-04 14:11 | 30.47923 | 114.83781 | 37148 ft | 576 kts | 97° |
| 2026-05-04 14:11 | 30.46521 | 114.97527 | 37128 ft | 576 kts | 97° |
| 2026-05-04 14:12 | 30.45568 | 115.06761 | 37115 ft | 576 kts | 97° |
| 2026-05-04 14:13 | 30.43764 | 115.20494 | 37162 ft | 576 kts | 106° |
| 2026-05-04 14:13 | 30.41271 | 115.29215 | 37138 ft | 569 kts | 116° |
| 2026-05-04 14:14 | 30.37618 | 115.37334 | 37159 ft | 567 kts | 127° |
| 2026-05-04 14:14 | 30.31178 | 115.48682 | 37116 ft | 563 kts | 128° |
| 2026-05-04 14:15 | 30.22584 | 115.63834 | 37156 ft | 567 kts | 128° |
| 2026-05-04 14:16 | 30.16132 | 115.75266 | 37156 ft | 567 kts | 128° |
| 2026-05-04 14:17 | 30.09679 | 115.86665 | 37116 ft | 565 kts | 129° |
| 2026-05-04 14:18 | 30.03213 | 115.98055 | 37167 ft | 568 kts | 129° |
| 2026-05-04 14:19 | 29.94551 | 116.13268 | 37165 ft | 569 kts | 129° |
| 2026-05-04 14:19 | 29.90200 | 116.20886 | 37158 ft | 568 kts | 129° |
| 2026-05-04 14:20 | 29.85851 | 116.28487 | 37160 ft | 568 kts | 129° |
| 2026-05-04 14:20 | 29.81503 | 116.36070 | 37163 ft | 568 kts | 129° |
| 2026-05-04 14:21 | 29.74964 | 116.47452 | 37164 ft | 567 kts | 129° |
| 2026-05-04 14:21 | 29.70632 | 116.54972 | 37163 ft | 567 kts | 129° |
| 2026-05-04 14:22 | 29.66279 | 116.62564 | 37160 ft | 570 kts | 126° |
| 2026-05-04 14:22 | 29.64596 | 116.66706 | 37143 ft | 580 kts | 112° |
| 2026-05-04 14:22 | 29.63693 | 116.71286 | 37152 ft | 587 kts | 98° |
| 2026-05-04 14:23 | 29.63942 | 116.80644 | 37130 ft | 590 kts | 84° |
| 2026-05-04 14:23 | 29.64373 | 116.85272 | 37351 ft | 585 kts | 84° |
| 2026-05-04 14:23 | 29.64800 | 116.89934 | 37218 ft | 578 kts | 84° |
| 2026-05-04 14:24 | 29.65183 | 116.94475 | 37066 ft | 569 kts | 85° |
| 2026-05-04 14:24 | 29.65531 | 116.98951 | 36894 ft | 560 kts | 85° |
| 2026-05-04 14:24 | 29.65849 | 117.03323 | 36619 ft | 554 kts | 86° |
| 2026-05-04 14:24 | 29.66159 | 117.07764 | 36166 ft | 553 kts | 85° |
| 2026-05-04 14:25 | 29.66456 | 117.12151 | 35627 ft | 554 kts | 86° |
| 2026-05-04 14:25 | 29.67049 | 117.20963 | 34513 ft | 557 kts | 86° |
| 2026-05-04 14:25 | 29.67342 | 117.25364 | 33950 ft | 558 kts | 86° |
| 2026-05-04 14:26 | 29.67638 | 117.29836 | 33387 ft | 559 kts | 86° |
| 2026-05-04 14:26 | 29.67930 | 117.34244 | 32838 ft | 560 kts | 86° |
| 2026-05-04 14:26 | 29.68225 | 117.38741 | 32296 ft | 560 kts | 86° |
| 2026-05-04 14:26 | 29.68519 | 117.43160 | 31793 ft | 559 kts | 86° |
| 2026-05-04 14:27 | 29.68812 | 117.47601 | 31311 ft | 558 kts | 86° |
| 2026-05-04 14:27 | 29.69099 | 117.52016 | 30851 ft | 556 kts | 86° |
| 2026-05-04 14:27 | 29.69386 | 117.56461 | 30395 ft | 553 kts | 86° |
| 2026-05-04 14:27 | 29.69669 | 117.60844 | 30115 ft | 547 kts | 86° |
| 2026-05-04 14:28 | 29.69947 | 117.65150 | 29611 ft | 547 kts | 86° |
| 2026-05-04 14:28 | 29.70225 | 117.69511 | 28713 ft | 552 kts | 86° |
| 2026-05-04 14:28 | 29.70503 | 117.73910 | 27875 ft | 556 kts | 86° |
| 2026-05-04 14:28 | 29.70783 | 117.78352 | 26851 ft | 550 kts | 86° |
| 2026-05-04 14:29 | 29.71323 | 117.86941 | 25350 ft | 534 kts | 86° |
| 2026-05-04 14:29 | 29.71838 | 117.95189 | 23874 ft | 508 kts | 87° |
| 2026-05-04 14:30 | 29.72088 | 117.99241 | 23017 ft | 499 kts | 86° |
| 2026-05-04 14:30 | 29.72327 | 118.03149 | 22180 ft | 490 kts | 86° |
| 2026-05-04 14:30 | 29.72789 | 118.10777 | 20958 ft | 462 kts | 86° |
| 2026-05-04 14:31 | 29.73006 | 118.14371 | 20810 ft | 445 kts | 86° |
| 2026-05-04 14:31 | 29.73420 | 118.21426 | 20793 ft | 444 kts | 87° |
| 2026-05-04 14:32 | 29.73470 | 118.28539 | 20830 ft | 446 kts | 93° |
| 2026-05-04 14:32 | 29.73237 | 118.32117 | 20819 ft | 445 kts | 96° |
| 2026-05-04 14:32 | 29.72929 | 118.35608 | 20821 ft | 445 kts | 97° |
| 2026-05-04 14:32 | 29.72597 | 118.39185 | 20803 ft | 445 kts | 97° |
| 2026-05-04 14:33 | 29.72272 | 118.42683 | 20575 ft | 443 kts | 97° |
| 2026-05-04 14:33 | 29.71946 | 118.46211 | 20339 ft | 441 kts | 96° |
| 2026-05-04 14:33 | 29.71625 | 118.49704 | 20099 ft | 438 kts | 96° |
| 2026-05-04 14:33 | 29.71308 | 118.53187 | 19840 ft | 436 kts | 96° |
| 2026-05-04 14:34 | 29.70996 | 118.56604 | 19599 ft | 434 kts | 96° |
| 2026-05-04 14:34 | 29.70682 | 118.60038 | 19357 ft | 432 kts | 96° |
| 2026-05-04 14:34 | 29.70366 | 118.63483 | 19102 ft | 429 kts | 96° |
| 2026-05-04 14:34 | 29.70053 | 118.66864 | 18772 ft | 426 kts | 96° |
| 2026-05-04 14:35 | 29.69740 | 118.70252 | 18361 ft | 420 kts | 96° |
| 2026-05-04 14:35 | 29.69443 | 118.73489 | 17876 ft | 404 kts | 96° |
| 2026-05-04 14:35 | 29.69160 | 118.76627 | 17547 ft | 386 kts | 96° |
| 2026-05-04 14:35 | 29.68889 | 118.79628 | 17087 ft | 373 kts | 96° |
| 2026-05-04 14:36 | 29.68625 | 118.82549 | 16464 ft | 368 kts | 96° |
| 2026-05-04 14:36 | 29.68361 | 118.85454 | 15987 ft | 359 kts | 96° |
| 2026-05-04 14:36 | 29.68103 | 118.88284 | 15814 ft | 359 kts | 96° |
| 2026-05-04 14:36 | 29.67842 | 118.91148 | 15820 ft | 360 kts | 96° |
| 2026-05-04 14:37 | 29.67802 | 118.94018 | 15836 ft | 360 kts | 78° |
| 2026-05-04 14:37 | 29.68648 | 118.96690 | 15831 ft | 357 kts | 60° |
| 2026-05-04 14:37 | 29.69857 | 118.99183 | 15831 ft | 356 kts | 58° |
| 2026-05-04 14:37 | 29.71084 | 119.01641 | 15737 ft | 352 kts | 59° |
| 2026-05-04 14:38 | 29.72259 | 119.04092 | 15423 ft | 351 kts | 60° |
| 2026-05-04 14:38 | 29.73406 | 119.06589 | 15064 ft | 350 kts | 61° |
| 2026-05-04 14:38 | 29.74503 | 119.09051 | 14758 ft | 348 kts | 62° |
| 2026-05-04 14:38 | 29.75598 | 119.11554 | 14456 ft | 346 kts | 62° |
| 2026-05-04 14:39 | 29.76659 | 119.14005 | 14150 ft | 343 kts | 62° |
| 2026-05-04 14:39 | 29.77715 | 119.16460 | 13835 ft | 341 kts | 62° |
| 2026-05-04 14:39 | 29.78758 | 119.18891 | 13552 ft | 338 kts | 62° |
| 2026-05-04 14:40 | 29.80815 | 119.23710 | 12978 ft | 333 kts | 63° |
| 2026-05-04 14:40 | 29.81829 | 119.26086 | 12731 ft | 328 kts | 62° |
| 2026-05-04 14:40 | 29.82825 | 119.28427 | 12523 ft | 317 kts | 62° |
| 2026-05-04 14:40 | 29.83772 | 119.30653 | 12328 ft | 307 kts | 63° |
| 2026-05-04 14:41 | 29.84695 | 119.32822 | 12030 ft | 301 kts | 63° |
| 2026-05-04 14:41 | 29.85612 | 119.34978 | 11648 ft | 299 kts | 63° |
| 2026-05-04 14:41 | 29.87423 | 119.39245 | 10879 ft | 294 kts | 62° |
| 2026-05-04 14:42 | 29.89209 | 119.43448 | 10135 ft | 289 kts | 62° |
| 2026-05-04 14:42 | 29.90091 | 119.45526 | 9780 ft | 286 kts | 62° |
| 2026-05-04 14:42 | 29.90958 | 119.47570 | 9405 ft | 284 kts | 62° |
| 2026-05-04 14:43 | 29.91823 | 119.49618 | 9033 ft | 281 kts | 62° |
| 2026-05-04 14:43 | 29.92668 | 119.51610 | 8931 ft | 280 kts | 62° |
| 2026-05-04 14:43 | 29.93525 | 119.53632 | 8930 ft | 283 kts | 62° |
| 2026-05-04 14:43 | 29.94399 | 119.55699 | 8926 ft | 283 kts | 62° |
| 2026-05-04 14:44 | 29.95255 | 119.57725 | 8937 ft | 284 kts | 62° |
| 2026-05-04 14:44 | 29.96125 | 119.59783 | 8930 ft | 283 kts | 62° |
| 2026-05-04 14:44 | 29.96992 | 119.61839 | 8925 ft | 283 kts | 62° |
| 2026-05-04 14:44 | 29.97853 | 119.63879 | 8923 ft | 283 kts | 62° |
| 2026-05-04 14:45 | 29.98715 | 119.65919 | 8924 ft | 283 kts | 63° |
| 2026-05-04 14:45 | 29.99571 | 119.67950 | 8921 ft | 283 kts | 63° |
| 2026-05-04 14:45 | 30.00429 | 119.69991 | 8918 ft | 283 kts | 63° |
| 2026-05-04 14:45 | 30.01294 | 119.72041 | 8920 ft | 283 kts | 63° |
| 2026-05-04 14:46 | 30.02151 | 119.74082 | 8916 ft | 283 kts | 63° |
| 2026-05-04 14:46 | 30.03015 | 119.76136 | 8911 ft | 282 kts | 62° |
| 2026-05-04 14:46 | 30.03874 | 119.78159 | 8907 ft | 282 kts | 62° |
| 2026-05-04 14:46 | 30.04779 | 119.80172 | 8899 ft | 282 kts | 61° |
| 2026-05-04 14:47 | 30.05694 | 119.82184 | 8905 ft | 283 kts | 61° |
| 2026-05-04 14:47 | 30.06605 | 119.84193 | 8875 ft | 284 kts | 60° |
| 2026-05-04 14:47 | 30.07512 | 119.86199 | 8722 ft | 281 kts | 60° |
| 2026-05-04 14:47 | 30.08416 | 119.88199 | 8468 ft | 279 kts | 61° |
| 2026-05-04 14:48 | 30.09314 | 119.90189 | 8290 ft | 275 kts | 60° |
| 2026-05-04 14:48 | 30.10188 | 119.92133 | 8051 ft | 274 kts | 60° |
| 2026-05-04 14:48 | 30.11071 | 119.94097 | 7790 ft | 273 kts | 61° |
| 2026-05-04 14:48 | 30.11945 | 119.96036 | 7546 ft | 272 kts | 61° |
| 2026-05-04 14:49 | 30.12809 | 119.97959 | 7316 ft | 271 kts | 61° |
| 2026-05-04 14:49 | 30.13679 | 119.99904 | 7076 ft | 269 kts | 61° |
| 2026-05-04 14:49 | 30.14529 | 120.01799 | 6904 ft | 265 kts | 61° |
| 2026-05-04 14:49 | 30.15383 | 120.03703 | 6895 ft | 268 kts | 61° |
| 2026-05-04 14:50 | 30.16242 | 120.05622 | 6896 ft | 269 kts | 61° |
| 2026-05-04 14:50 | 30.17102 | 120.07543 | 6887 ft | 268 kts | 61° |
| 2026-05-04 14:50 | 30.17960 | 120.09458 | 6887 ft | 269 kts | 61° |
| 2026-05-04 14:50 | 30.18829 | 120.11404 | 6880 ft | 270 kts | 61° |
| 2026-05-04 14:51 | 30.19689 | 120.13324 | 6879 ft | 271 kts | 61° |
| 2026-05-04 14:51 | 30.20548 | 120.15243 | 6893 ft | 270 kts | 61° |
| 2026-05-04 14:51 | 30.21409 | 120.17176 | 6891 ft | 270 kts | 61° |
| 2026-05-04 14:51 | 30.22271 | 120.19111 | 6883 ft | 270 kts | 61° |
| 2026-05-04 14:52 | 30.23127 | 120.21036 | 6891 ft | 269 kts | 61° |
| 2026-05-04 14:52 | 30.23985 | 120.22966 | 6878 ft | 269 kts | 61° |
| 2026-05-04 14:52 | 30.24843 | 120.24896 | 6906 ft | 270 kts | 61° |
| 2026-05-04 14:52 | 30.25703 | 120.26833 | 6861 ft | 270 kts | 61° |
| 2026-05-04 14:53 | 30.26533 | 120.28698 | 6704 ft | 266 kts | 61° |
| 2026-05-04 14:53 | 30.27390 | 120.30626 | 6450 ft | 266 kts | 61° |
| 2026-05-04 14:53 | 30.28231 | 120.32522 | 6202 ft | 265 kts | 61° |
| 2026-05-04 14:53 | 30.29071 | 120.34414 | 5973 ft | 264 kts | 61° |
| 2026-05-04 14:54 | 30.29907 | 120.36295 | 5913 ft | 264 kts | 61° |
| 2026-05-04 14:54 | 30.30761 | 120.38221 | 5909 ft | 266 kts | 61° |
| 2026-05-04 14:54 | 30.31615 | 120.40150 | 5907 ft | 266 kts | 61° |
| 2026-05-04 14:54 | 30.32465 | 120.42073 | 5906 ft | 267 kts | 61° |
| 2026-05-04 14:55 | 30.33306 | 120.43971 | 5906 ft | 267 kts | 61° |
| 2026-05-04 14:55 | 30.34160 | 120.45901 | 5905 ft | 267 kts | 61° |
| 2026-05-04 14:55 | 30.35000 | 120.47802 | 5906 ft | 267 kts | 61° |
| 2026-05-04 14:55 | 30.35856 | 120.49737 | 5856 ft | 267 kts | 61° |
| 2026-05-04 14:56 | 30.36698 | 120.51640 | 5726 ft | 267 kts | 61° |
| 2026-05-04 14:56 | 30.37546 | 120.53561 | 5566 ft | 266 kts | 62° |
| 2026-05-04 14:56 | 30.38376 | 120.55441 | 5305 ft | 266 kts | 62° |
| 2026-05-04 14:56 | 30.39214 | 120.57346 | 5095 ft | 266 kts | 62° |
| 2026-05-04 14:57 | 30.40066 | 120.59276 | 4837 ft | 266 kts | 62° |
| 2026-05-04 14:57 | 30.40888 | 120.61140 | 4593 ft | 256 kts | 62° |
| 2026-05-04 14:57 | 30.41680 | 120.62974 | 4194 ft | 253 kts | 67° |
| 2026-05-04 14:57 | 30.41918 | 120.64964 | 3602 ft | 256 kts | 105° |
| 2026-05-04 14:58 | 30.41067 | 120.66689 | 3203 ft | 248 kts | 144° |
| 2026-05-04 14:58 | 30.39576 | 120.67598 | 3003 ft | 240 kts | 161° |
| 2026-05-04 14:58 | 30.37972 | 120.68104 | 3014 ft | 236 kts | 180° |
| 2026-05-04 14:58 | 30.36438 | 120.67684 | 3006 ft | 224 kts | 212° |
| 2026-05-04 14:59 | 30.35306 | 120.66527 | 2990 ft | 214 kts | 232° |
| 2026-05-04 14:59 | 30.34519 | 120.65097 | 2974 ft | 203 kts | 242° |
| 2026-05-04 14:59 | 30.33342 | 120.62289 | 2994 ft | 191 kts | 243° |
| 2026-05-04 15:00 | 30.32757 | 120.60918 | 3001 ft | 192 kts | 242° |
| 2026-05-04 15:00 | 30.32153 | 120.59541 | 2896 ft | 193 kts | 242° |
| 2026-05-04 15:00 | 30.31527 | 120.58136 | 2664 ft | 194 kts | 241° |
| 2026-05-04 15:01 | 30.30285 | 120.55363 | 2163 ft | 194 kts | 240° |
| 2026-05-04 15:01 | 30.29670 | 120.53988 | 1900 ft | 190 kts | 241° |
| 2026-05-04 15:01 | 30.29078 | 120.52657 | 1656 ft | 183 kts | 240° |
| 2026-05-04 15:01 | 30.28508 | 120.51378 | 1404 ft | 175 kts | 241° |
| 2026-05-04 15:02 | 30.27958 | 120.50144 | 1183 ft | 167 kts | 241° |
| 2026-05-04 15:02 | 30.27433 | 120.48965 | 974 ft | 160 kts | 241° |
| 2026-05-04 15:02 | 30.26937 | 120.47849 | 771 ft | 153 kts | 241° |
| 2026-05-04 15:02 | 30.26458 | 120.46774 | 587 ft | 149 kts | 241° |
| 2026-05-04 15:03 | 30.25985 | 120.45710 | 394 ft | 149 kts | 241° |
| 2026-05-04 15:03 | 30.25510 | 120.44641 | 204 ft | 148 kts | 241° |
| 2026-05-04 15:03 | 30.25044 | 120.43596 | 44 ft | 145 kts | 241° |
| 2026-05-04 15:03 | 30.24622 | 120.42651 | 37 ft | 106 kts | 241° |
| 2026-05-04 15:04 | 30.24376 | 120.42090 | 37 ft | 54 kts | 242° |
| 2026-05-04 15:04 | 30.24190 | 120.41841 | 37 ft | 22 kts | 216° |
| 2026-05-04 15:04 | 30.24139 | 120.41799 | 37 ft | 0 kts | 215° |
| 2026-05-04 15:04 | 30.24132 | 120.41793 | 37 ft | 2 kts | 214° |
| 2026-05-04 15:05 | 30.24116 | 120.41790 | 37 ft | 3 kts | 173° |
| 2026-05-04 15:05 | 30.24093 | 120.41801 | 37 ft | 4 kts | 142° |
| 2026-05-04 15:05 | 30.24082 | 120.41833 | 37 ft | 4 kts | 91° |
| 2026-05-04 15:05 | 30.24094 | 120.41880 | 37 ft | 7 kts | 65° |
| 2026-05-04 15:06 | 30.24123 | 120.41946 | 37 ft | 10 kts | 63° |
| 2026-05-04 15:06 | 30.24161 | 120.42032 | 37 ft | 13 kts | 62° |
| 2026-05-04 15:06 | 30.24205 | 120.42130 | 37 ft | 14 kts | 64° |
| 2026-05-04 15:07 | 30.24297 | 120.42337 | 37 ft | 12 kts | 63° |
| 2026-05-04 15:07 | 30.24300 | 120.42409 | 37 ft | 6 kts | 129° |
| 2026-05-04 15:07 | 30.24259 | 120.42439 | 37 ft | 7 kts | 150° |
| 2026-05-04 15:07 | 30.24207 | 120.42474 | 37 ft | 9 kts | 144° |
| 2026-05-04 15:08 | 30.24191 | 120.42532 | 37 ft | 7 kts | 66° |
| 2026-05-04 15:08 | 30.24193 | 120.42564 | 37 ft | 4 kts | 100° |
| 2026-05-04 15:08 | 30.24173 | 120.42590 | 37 ft | 5 kts | 142° |
| 2026-05-04 15:08 | 30.24143 | 120.42617 | 37 ft | 6 kts | 143° |
| 2026-05-04 15:09 | 30.24123 | 120.42634 | 37 ft | 0 kts | 143° |